TAF Text Data
IDs:
Format:
Raw Decoded Include METAR

Data at: 0155 UTC 29 Nov 2020

KCON 282320Z 2900/2924 29003KT P6SM FEW100
  FM290800 24004KT P6SM SKC